sensor_id;sensor_type;location;lat;lon;timestamp;P1;durP1;ratioP1;P2;durP2;ratioP2
4226;SDS011;2127;51.046;7.080;2023-08-17T00:00:49;2.93;;;2.83;;
4226;SDS011;2127;51.046;7.080;2023-08-17T00:03:15;3.70;;;3.40;;
4226;SDS011;2127;51.046;7.080;2023-08-17T00:05:41;3.03;;;2.87;;
4226;SDS011;2127;51.046;7.080;2023-08-17T00:08:08;5.17;;;3.43;;
4226;SDS011;2127;51.046;7.080;2023-08-17T00:10:34;3.10;;;2.90;;
4226;SDS011;2127;51.046;7.080;2023-08-17T00:13:03;3.10;;;2.90;;
4226;SDS011;2127;51.046;7.080;2023-08-17T00:15:30;2.93;;;2.83;;
4226;SDS011;2127;51.046;7.080;2023-08-17T00:17:58;3.57;;;3.47;;
4226;SDS011;2127;51.046;7.080;2023-08-17T00:20:25;5.87;;;3.40;;
4226;SDS011;2127;51.046;7.080;2023-08-17T00:22:51;3.80;;;3.43;;
4226;SDS011;2127;51.046;7.080;2023-08-17T00:25:17;3.30;;;3.00;;
4226;SDS011;2127;51.046;7.080;2023-08-17T00:27:43;4.83;;;4.03;;
4226;SDS011;2127;51.046;7.080;2023-08-17T00:30:10;3.20;;;3.00;;
4226;SDS011;2127;51.046;7.080;2023-08-17T00:32:36;3.30;;;3.10;;
4226;SDS011;2127;51.046;7.080;2023-08-17T00:35:06;3.30;;;3.20;;
4226;SDS011;2127;51.046;7.080;2023-08-17T00:37:32;3.87;;;2.70;;
4226;SDS011;2127;51.046;7.080;2023-08-17T00:39:59;3.20;;;3.00;;
4226;SDS011;2127;51.046;7.080;2023-08-17T00:42:25;5.13;;;3.80;;
4226;SDS011;2127;51.046;7.080;2023-08-17T00:44:51;4.37;;;3.73;;
4226;SDS011;2127;51.046;7.080;2023-08-17T00:47:17;2.87;;;2.67;;
4226;SDS011;2127;51.046;7.080;2023-08-17T00:49:44;2.77;;;2.67;;
4226;SDS011;2127;51.046;7.080;2023-08-17T00:52:11;3.50;;;3.30;;
4226;SDS011;2127;51.046;7.080;2023-08-17T00:54:38;8.00;;;3.10;;
4226;SDS011;2127;51.046;7.080;2023-08-17T00:57:04;3.27;;;3.07;;
4226;SDS011;2127;51.046;7.080;2023-08-17T00:59:31;4.00;;;3.80;;
4226;SDS011;2127;51.046;7.080;2023-08-17T01:01:58;3.73;;;3.30;;
4226;SDS011;2127;51.046;7.080;2023-08-17T01:04:24;5.63;;;3.90;;
4226;SDS011;2127;51.046;7.080;2023-08-17T01:06:50;3.63;;;2.87;;
4226;SDS011;2127;51.046;7.080;2023-08-17T01:09:18;3.53;;;3.43;;
4226;SDS011;2127;51.046;7.080;2023-08-17T01:11:45;2.80;;;2.70;;
4226;SDS011;2127;51.046;7.080;2023-08-17T01:14:15;2.57;;;2.47;;
4226;SDS011;2127;51.046;7.080;2023-08-17T01:16:46;3.93;;;3.57;;
4226;SDS011;2127;51.046;7.080;2023-08-17T01:19:14;3.20;;;3.00;;
4226;SDS011;2127;51.046;7.080;2023-08-17T01:21:49;7.60;;;3.90;;
4226;SDS011;2127;51.046;7.080;2023-08-17T01:24:17;4.20;;;3.93;;
4226;SDS011;2127;51.046;7.080;2023-08-17T01:26:43;15.20;;;3.30;;
4226;SDS011;2127;51.046;7.080;2023-08-17T01:29:09;3.80;;;3.50;;
4226;SDS011;2127;51.046;7.080;2023-08-17T01:31:36;4.83;;;4.40;;
4226;SDS011;2127;51.046;7.080;2023-08-17T01:34:06;3.60;;;3.40;;
4226;SDS011;2127;51.046;7.080;2023-08-17T01:36:36;4.00;;;3.80;;
4226;SDS011;2127;51.046;7.080;2023-08-17T01:39:03;4.33;;;3.60;;
4226;SDS011;2127;51.046;7.080;2023-08-17T01:41:31;5.63;;;4.17;;
4226;SDS011;2127;51.046;7.080;2023-08-17T01:43:58;5.37;;;3.80;;
4226;SDS011;2127;51.046;7.080;2023-08-17T01:46:29;3.50;;;3.20;;
4226;SDS011;2127;51.046;7.080;2023-08-17T01:48:55;4.93;;;4.43;;
4226;SDS011;2127;51.046;7.080;2023-08-17T01:51:22;5.43;;;4.47;;
4226;SDS011;2127;51.046;7.080;2023-08-17T01:53:49;8.80;;;4.23;;
4226;SDS011;2127;51.046;7.080;2023-08-17T01:56:15;3.83;;;3.43;;
4226;SDS011;2127;51.046;7.080;2023-08-17T01:58:43;2.97;;;2.83;;
4226;SDS011;2127;51.046;7.080;2023-08-17T02:01:09;4.20;;;4.00;;
4226;SDS011;2127;51.046;7.080;2023-08-17T02:03:35;3.33;;;3.13;;
4226;SDS011;2127;51.046;7.080;2023-08-17T02:06:02;2.83;;;2.73;;
4226;SDS011;2127;51.046;7.080;2023-08-17T02:08:28;5.07;;;3.47;;
4226;SDS011;2127;51.046;7.080;2023-08-17T02:10:55;6.03;;;3.77;;
4226;SDS011;2127;51.046;7.080;2023-08-17T02:13:21;3.47;;;2.93;;
4226;SDS011;2127;51.046;7.080;2023-08-17T02:15:49;46.43;;;4.47;;
4226;SDS011;2127;51.046;7.080;2023-08-17T02:18:15;3.50;;;3.30;;
4226;SDS011;2127;51.046;7.080;2023-08-17T02:20:41;3.60;;;3.40;;
4226;SDS011;2127;51.046;7.080;2023-08-17T02:23:07;2.70;;;2.53;;
4226;SDS011;2127;51.046;7.080;2023-08-17T02:25:37;4.07;;;3.87;;
4226;SDS011;2127;51.046;7.080;2023-08-17T02:28:03;4.80;;;4.03;;
4226;SDS011;2127;51.046;7.080;2023-08-17T02:30:30;3.90;;;3.60;;
4226;SDS011;2127;51.046;7.080;2023-08-17T02:32:58;3.93;;;3.73;;
4226;SDS011;2127;51.046;7.080;2023-08-17T02:35:24;4.30;;;4.00;;
4226;SDS011;2127;51.046;7.080;2023-08-17T02:37:50;3.10;;;2.83;;
4226;SDS011;2127;51.046;7.080;2023-08-17T02:40:17;3.47;;;3.27;;
4226;SDS011;2127;51.046;7.080;2023-08-17T02:42:43;3.10;;;2.90;;
4226;SDS011;2127;51.046;7.080;2023-08-17T02:45:09;3.40;;;3.30;;
4226;SDS011;2127;51.046;7.080;2023-08-17T02:47:36;5.23;;;3.20;;
4226;SDS011;2127;51.046;7.080;2023-08-17T02:50:04;7.63;;;3.00;;
4226;SDS011;2127;51.046;7.080;2023-08-17T02:52:30;15.57;;;3.63;;
4226;SDS011;2127;51.046;7.080;2023-08-17T02:54:57;10.47;;;4.10;;
4226;SDS011;2127;51.046;7.080;2023-08-17T02:57:23;3.20;;;3.07;;
4226;SDS011;2127;51.046;7.080;2023-08-17T02:59:49;3.93;;;3.70;;
4226;SDS011;2127;51.046;7.080;2023-08-17T03:02:16;2.90;;;2.80;;
4226;SDS011;2127;51.046;7.080;2023-08-17T03:04:42;3.73;;;3.53;;
4226;SDS011;2127;51.046;7.080;2023-08-17T03:07:09;7.70;;;3.23;;
4226;SDS011;2127;51.046;7.080;2023-08-17T03:09:36;5.27;;;3.53;;
4226;SDS011;2127;51.046;7.080;2023-08-17T03:12:02;7.00;;;2.93;;
4226;SDS011;2127;51.046;7.080;2023-08-17T03:14:29;4.30;;;4.03;;
4226;SDS011;2127;51.046;7.080;2023-08-17T03:16:55;3.40;;;3.20;;
4226;SDS011;2127;51.046;7.080;2023-08-17T03:19:21;4.07;;;3.87;;
4226;SDS011;2127;51.046;7.080;2023-08-17T03:21:47;2.77;;;2.57;;
4226;SDS011;2127;51.046;7.080;2023-08-17T03:24:15;4.67;;;4.27;;
4226;SDS011;2127;51.046;7.080;2023-08-17T03:26:41;3.60;;;3.47;;
4226;SDS011;2127;51.046;7.080;2023-08-17T03:29:07;4.07;;;3.77;;
4226;SDS011;2127;51.046;7.080;2023-08-17T03:31:35;4.03;;;3.83;;
4226;SDS011;2127;51.046;7.080;2023-08-17T03:34:01;4.27;;;4.07;;
4226;SDS011;2127;51.046;7.080;2023-08-17T03:36:27;3.77;;;3.43;;
4226;SDS011;2127;51.046;7.080;2023-08-17T03:38:53;3.23;;;2.93;;
4226;SDS011;2127;51.046;7.080;2023-08-17T03:41:22;2.43;;;2.33;;
4226;SDS011;2127;51.046;7.080;2023-08-17T03:43:49;5.10;;;4.20;;
4226;SDS011;2127;51.046;7.080;2023-08-17T03:46:15;4.00;;;3.70;;
4226;SDS011;2127;51.046;7.080;2023-08-17T03:48:42;9.83;;;3.90;;
4226;SDS011;2127;51.046;7.080;2023-08-17T03:51:08;4.10;;;3.77;;
4226;SDS011;2127;51.046;7.080;2023-08-17T03:53:34;4.00;;;3.73;;
4226;SDS011;2127;51.046;7.080;2023-08-17T03:56:00;2.73;;;2.53;;
4226;SDS011;2127;51.046;7.080;2023-08-17T03:58:28;4.70;;;4.50;;
4226;SDS011;2127;51.046;7.080;2023-08-17T04:00:58;3.33;;;2.60;;
4226;SDS011;2127;51.046;7.080;2023-08-17T04:03:24;3.70;;;3.50;;
4226;SDS011;2127;51.046;7.080;2023-08-17T04:05:51;3.47;;;3.17;;
4226;SDS011;2127;51.046;7.080;2023-08-17T04:08:17;8.33;;;3.20;;
4226;SDS011;2127;51.046;7.080;2023-08-17T04:10:43;3.27;;;3.07;;
4226;SDS011;2127;51.046;7.080;2023-08-17T04:13:09;5.27;;;4.83;;
4226;SDS011;2127;51.046;7.080;2023-08-17T04:15:37;2.53;;;2.43;;
4226;SDS011;2127;51.046;7.080;2023-08-17T04:18:03;13.07;;;3.13;;
4226;SDS011;2127;51.046;7.080;2023-08-17T04:20:30;3.10;;;3.00;;
4226;SDS011;2127;51.046;7.080;2023-08-17T04:22:56;3.37;;;3.17;;
4226;SDS011;2127;51.046;7.080;2023-08-17T04:25:22;7.80;;;3.60;;
4226;SDS011;2127;51.046;7.080;2023-08-17T04:27:48;4.10;;;2.60;;
4226;SDS011;2127;51.046;7.080;2023-08-17T04:30:15;3.10;;;2.90;;
4226;SDS011;2127;51.046;7.080;2023-08-17T04:32:42;3.90;;;3.70;;
4226;SDS011;2127;51.046;7.080;2023-08-17T04:35:09;3.70;;;3.50;;
4226;SDS011;2127;51.046;7.080;2023-08-17T04:37:36;9.23;;;3.47;;
4226;SDS011;2127;51.046;7.080;2023-08-17T04:40:03;4.30;;;3.30;;
4226;SDS011;2127;51.046;7.080;2023-08-17T04:42:30;3.10;;;3.00;;
4226;SDS011;2127;51.046;7.080;2023-08-17T04:44:56;4.10;;;3.70;;
4226;SDS011;2127;51.046;7.080;2023-08-17T04:47:22;4.03;;;3.83;;
4226;SDS011;2127;51.046;7.080;2023-08-17T04:49:50;5.07;;;3.83;;
4226;SDS011;2127;51.046;7.080;2023-08-17T04:52:16;10.60;;;4.13;;
4226;SDS011;2127;51.046;7.080;2023-08-17T04:54:43;5.83;;;4.63;;
4226;SDS011;2127;51.046;7.080;2023-08-17T04:57:09;5.13;;;4.27;;
4226;SDS011;2127;51.046;7.080;2023-08-17T04:59:35;4.30;;;3.90;;
4226;SDS011;2127;51.046;7.080;2023-08-17T05:02:01;6.47;;;3.70;;
4226;SDS011;2127;51.046;7.080;2023-08-17T05:04:29;4.90;;;4.50;;
4226;SDS011;2127;51.046;7.080;2023-08-17T05:06:56;3.50;;;3.27;;
4226;SDS011;2127;51.046;7.080;2023-08-17T05:09:23;3.97;;;3.70;;
4226;SDS011;2127;51.046;7.080;2023-08-17T05:11:49;4.30;;;4.00;;
4226;SDS011;2127;51.046;7.080;2023-08-17T05:14:15;5.37;;;4.80;;
4226;SDS011;2127;51.046;7.080;2023-08-17T05:16:41;4.33;;;3.93;;
4226;SDS011;2127;51.046;7.080;2023-08-17T05:19:08;4.70;;;3.97;;
4226;SDS011;2127;51.046;7.080;2023-08-17T05:21:34;5.20;;;4.70;;
4226;SDS011;2127;51.046;7.080;2023-08-17T05:24:02;5.53;;;5.13;;
4226;SDS011;2127;51.046;7.080;2023-08-17T05:26:28;5.53;;;3.40;;
4226;SDS011;2127;51.046;7.080;2023-08-17T05:28:55;5.00;;;4.60;;
4226;SDS011;2127;51.046;7.080;2023-08-17T05:31:21;4.83;;;4.37;;
4226;SDS011;2127;51.046;7.080;2023-08-17T05:33:47;5.57;;;4.97;;
4226;SDS011;2127;51.046;7.080;2023-08-17T05:36:13;7.30;;;5.00;;
4226;SDS011;2127;51.046;7.080;2023-08-17T05:38:40;5.40;;;4.73;;
4226;SDS011;2127;51.046;7.080;2023-08-17T05:41:07;6.97;;;5.23;;
4226;SDS011;2127;51.046;7.080;2023-08-17T05:43:34;7.57;;;5.37;;
4226;SDS011;2127;51.046;7.080;2023-08-17T05:46:00;5.43;;;4.87;;
4226;SDS011;2127;51.046;7.080;2023-08-17T05:48:27;5.30;;;4.93;;
4226;SDS011;2127;51.046;7.080;2023-08-17T05:50:55;4.87;;;4.60;;
4226;SDS011;2127;51.046;7.080;2023-08-17T05:53:21;4.90;;;4.53;;
4226;SDS011;2127;51.046;7.080;2023-08-17T05:55:47;5.13;;;4.73;;
4226;SDS011;2127;51.046;7.080;2023-08-17T05:58:15;4.50;;;4.17;;
4226;SDS011;2127;51.046;7.080;2023-08-17T06:00:41;7.07;;;5.70;;
4226;SDS011;2127;51.046;7.080;2023-08-17T06:03:07;4.53;;;3.73;;
4226;SDS011;2127;51.046;7.080;2023-08-17T06:05:34;4.63;;;4.20;;
4226;SDS011;2127;51.046;7.080;2023-08-17T06:08:00;5.47;;;4.97;;
4226;SDS011;2127;51.046;7.080;2023-08-17T06:10:26;4.17;;;3.97;;
4226;SDS011;2127;51.046;7.080;2023-08-17T06:12:53;5.33;;;4.90;;
4226;SDS011;2127;51.046;7.080;2023-08-17T06:15:21;4.57;;;4.13;;
4226;SDS011;2127;51.046;7.080;2023-08-17T06:17:47;5.10;;;4.70;;
4226;SDS011;2127;51.046;7.080;2023-08-17T06:20:15;4.67;;;4.27;;
4226;SDS011;2127;51.046;7.080;2023-08-17T06:22:41;7.70;;;4.73;;
4226;SDS011;2127;51.046;7.080;2023-08-17T06:25:07;4.83;;;4.50;;
4226;SDS011;2127;51.046;7.080;2023-08-17T06:27:34;4.80;;;4.40;;
4226;SDS011;2127;51.046;7.080;2023-08-17T06:30:00;4.50;;;4.20;;
4226;SDS011;2127;51.046;7.080;2023-08-17T06:32:29;5.93;;;5.33;;
4226;SDS011;2127;51.046;7.080;2023-08-17T06:34:55;5.20;;;4.77;;
4226;SDS011;2127;51.046;7.080;2023-08-17T06:37:22;5.00;;;4.60;;
4226;SDS011;2127;51.046;7.080;2023-08-17T06:39:48;12.23;;;5.20;;
4226;SDS011;2127;51.046;7.080;2023-08-17T06:42:14;7.97;;;3.83;;
4226;SDS011;2127;51.046;7.080;2023-08-17T06:44:41;5.77;;;3.83;;
4226;SDS011;2127;51.046;7.080;2023-08-17T06:47:07;5.50;;;5.00;;
4226;SDS011;2127;51.046;7.080;2023-08-17T06:49:35;7.17;;;4.73;;
4226;SDS011;2127;51.046;7.080;2023-08-17T06:52:01;2.97;;;2.80;;
4226;SDS011;2127;51.046;7.080;2023-08-17T06:54:27;4.23;;;4.03;;
4226;SDS011;2127;51.046;7.080;2023-08-17T06:56:54;4.07;;;3.67;;
4226;SDS011;2127;51.046;7.080;2023-08-17T06:59:20;6.80;;;3.60;;
4226;SDS011;2127;51.046;7.080;2023-08-17T07:01:47;6.67;;;4.43;;
4226;SDS011;2127;51.046;7.080;2023-08-17T07:04:13;6.67;;;4.10;;
4226;SDS011;2127;51.046;7.080;2023-08-17T07:06:41;4.37;;;4.07;;
4226;SDS011;2127;51.046;7.080;2023-08-17T07:09:08;4.53;;;4.23;;
4226;SDS011;2127;51.046;7.080;2023-08-17T07:11:37;3.93;;;3.67;;
4226;SDS011;2127;51.046;7.080;2023-08-17T07:14:03;6.67;;;4.17;;
4226;SDS011;2127;51.046;7.080;2023-08-17T07:16:31;4.80;;;4.40;;
4226;SDS011;2127;51.046;7.080;2023-08-17T07:18:57;5.07;;;4.47;;
4226;SDS011;2127;51.046;7.080;2023-08-17T07:21:23;6.00;;;3.90;;
4226;SDS011;2127;51.046;7.080;2023-08-17T07:23:53;13.80;;;5.07;;
4226;SDS011;2127;51.046;7.080;2023-08-17T07:26:20;11.73;;;4.70;;
4226;SDS011;2127;51.046;7.080;2023-08-17T07:28:47;3.57;;;3.37;;
4226;SDS011;2127;51.046;7.080;2023-08-17T07:31:14;5.07;;;4.47;;
4226;SDS011;2127;51.046;7.080;2023-08-17T07:33:40;4.77;;;3.30;;
4226;SDS011;2127;51.046;7.080;2023-08-17T07:36:07;6.33;;;5.40;;
4226;SDS011;2127;51.046;7.080;2023-08-17T07:38:34;6.03;;;4.30;;
4226;SDS011;2127;51.046;7.080;2023-08-17T07:41:01;4.30;;;3.97;;
4226;SDS011;2127;51.046;7.080;2023-08-17T07:43:28;5.23;;;4.10;;
4226;SDS011;2127;51.046;7.080;2023-08-17T07:45:54;8.10;;;6.17;;
4226;SDS011;2127;51.046;7.080;2023-08-17T07:48:20;4.53;;;4.23;;
4226;SDS011;2127;51.046;7.080;2023-08-17T07:50:48;8.63;;;3.83;;
4226;SDS011;2127;51.046;7.080;2023-08-17T07:53:14;4.40;;;4.10;;
4226;SDS011;2127;51.046;7.080;2023-08-17T07:55:40;3.77;;;3.43;;
4226;SDS011;2127;51.046;7.080;2023-08-17T07:58:08;5.20;;;4.67;;
4226;SDS011;2127;51.046;7.080;2023-08-17T08:00:34;5.50;;;5.10;;
4226;SDS011;2127;51.046;7.080;2023-08-17T08:03:00;4.17;;;3.87;;
4226;SDS011;2127;51.046;7.080;2023-08-17T08:05:27;7.40;;;3.83;;
4226;SDS011;2127;51.046;7.080;2023-08-17T08:07:53;4.80;;;4.37;;
4226;SDS011;2127;51.046;7.080;2023-08-17T08:10:19;6.30;;;3.80;;
4226;SDS011;2127;51.046;7.080;2023-08-17T08:12:46;5.57;;;5.17;;
4226;SDS011;2127;51.046;7.080;2023-08-17T08:15:13;6.13;;;4.77;;
4226;SDS011;2127;51.046;7.080;2023-08-17T08:17:40;4.57;;;4.27;;
4226;SDS011;2127;51.046;7.080;2023-08-17T08:20:07;5.40;;;4.90;;
4226;SDS011;2127;51.046;7.080;2023-08-17T08:22:34;5.77;;;4.97;;
4226;SDS011;2127;51.046;7.080;2023-08-17T08:25:00;5.20;;;4.77;;
4226;SDS011;2127;51.046;7.080;2023-08-17T08:27:26;4.50;;;4.10;;
4226;SDS011;2127;51.046;7.080;2023-08-17T08:29:53;6.80;;;5.17;;
4226;SDS011;2127;51.046;7.080;2023-08-17T08:32:20;4.87;;;4.40;;
4226;SDS011;2127;51.046;7.080;2023-08-17T08:34:46;9.03;;;4.80;;
4226;SDS011;2127;51.046;7.080;2023-08-17T08:37:13;6.30;;;4.30;;
4226;SDS011;2127;51.046;7.080;2023-08-17T08:39:48;7.67;;;4.70;;
4226;SDS011;2127;51.046;7.080;2023-08-17T08:42:15;5.33;;;4.30;;
4226;SDS011;2127;51.046;7.080;2023-08-17T08:44:41;4.80;;;4.40;;
4226;SDS011;2127;51.046;7.080;2023-08-17T08:47:07;7.03;;;5.80;;
4226;SDS011;2127;51.046;7.080;2023-08-17T08:49:35;7.93;;;5.70;;
4226;SDS011;2127;51.046;7.080;2023-08-17T08:52:03;5.73;;;5.20;;
4226;SDS011;2127;51.046;7.080;2023-08-17T08:54:33;7.60;;;6.03;;
4226;SDS011;2127;51.046;7.080;2023-08-17T08:57:01;12.23;;;5.50;;
4226;SDS011;2127;51.046;7.080;2023-08-17T08:59:29;6.70;;;4.90;;
4226;SDS011;2127;51.046;7.080;2023-08-17T09:01:57;5.17;;;4.73;;
4226;SDS011;2127;51.046;7.080;2023-08-17T09:04:23;6.07;;;5.20;;
4226;SDS011;2127;51.046;7.080;2023-08-17T09:06:52;5.80;;;4.90;;
4226;SDS011;2127;51.046;7.080;2023-08-17T09:09:19;8.40;;;5.40;;
4226;SDS011;2127;51.046;7.080;2023-08-17T09:11:45;4.93;;;4.50;;
4226;SDS011;2127;51.046;7.080;2023-08-17T09:14:12;8.03;;;4.60;;
4226;SDS011;2127;51.046;7.080;2023-08-17T09:16:38;5.37;;;4.00;;
4226;SDS011;2127;51.046;7.080;2023-08-17T09:19:04;5.23;;;4.70;;
4226;SDS011;2127;51.046;7.080;2023-08-17T09:21:31;7.67;;;5.43;;
4226;SDS011;2127;51.046;7.080;2023-08-17T09:23:59;11.47;;;6.27;;
4226;SDS011;2127;51.046;7.080;2023-08-17T09:26:29;12.87;;;4.93;;
4226;SDS011;2127;51.046;7.080;2023-08-17T09:28:56;5.00;;;4.70;;
4226;SDS011;2127;51.046;7.080;2023-08-17T09:31:24;6.60;;;4.43;;
4226;SDS011;2127;51.046;7.080;2023-08-17T09:33:50;4.37;;;4.00;;
4226;SDS011;2127;51.046;7.080;2023-08-17T09:36:19;6.97;;;4.43;;
4226;SDS011;2127;51.046;7.080;2023-08-17T09:38:47;12.60;;;3.97;;
4226;SDS011;2127;51.046;7.080;2023-08-17T09:41:15;6.90;;;4.10;;
4226;SDS011;2127;51.046;7.080;2023-08-17T09:43:41;6.40;;;5.73;;
4226;SDS011;2127;51.046;7.080;2023-08-17T09:46:08;6.07;;;4.03;;
4226;SDS011;2127;51.046;7.080;2023-08-17T09:48:35;6.40;;;5.00;;
4226;SDS011;2127;51.046;7.080;2023-08-17T09:51:02;4.87;;;4.50;;
4226;SDS011;2127;51.046;7.080;2023-08-17T09:53:33;4.87;;;4.03;;
4226;SDS011;2127;51.046;7.080;2023-08-17T09:56:00;6.77;;;5.33;;
4226;SDS011;2127;51.046;7.080;2023-08-17T09:58:28;6.67;;;5.17;;
4226;SDS011;2127;51.046;7.080;2023-08-17T10:00:55;5.43;;;4.93;;
4226;SDS011;2127;51.046;7.080;2023-08-17T10:03:21;7.03;;;4.63;;
4226;SDS011;2127;51.046;7.080;2023-08-17T10:05:51;5.20;;;4.73;;
4226;SDS011;2127;51.046;7.080;2023-08-17T10:08:19;5.27;;;4.77;;
4226;SDS011;2127;51.046;7.080;2023-08-17T10:10:46;7.53;;;5.13;;
4226;SDS011;2127;51.046;7.080;2023-08-17T10:13:16;4.83;;;4.43;;
4226;SDS011;2127;51.046;7.080;2023-08-17T10:15:47;4.83;;;4.53;;
4226;SDS011;2127;51.046;7.080;2023-08-17T10:18:20;3.83;;;3.53;;
4226;SDS011;2127;51.046;7.080;2023-08-17T10:20:49;4.53;;;4.13;;
4226;SDS011;2127;51.046;7.080;2023-08-17T10:23:22;6.10;;;4.90;;
4226;SDS011;2127;51.046;7.080;2023-08-17T10:25:48;4.60;;;3.80;;
4226;SDS011;2127;51.046;7.080;2023-08-17T10:28:15;7.30;;;5.40;;
4226;SDS011;2127;51.046;7.080;2023-08-17T10:30:42;6.37;;;4.50;;
4226;SDS011;2127;51.046;7.080;2023-08-17T10:33:10;4.83;;;4.47;;
4226;SDS011;2127;51.046;7.080;2023-08-17T10:35:37;5.70;;;4.07;;
4226;SDS011;2127;51.046;7.080;2023-08-17T10:38:04;4.60;;;4.30;;
4226;SDS011;2127;51.046;7.080;2023-08-17T10:40:34;12.87;;;5.27;;
4226;SDS011;2127;51.046;7.080;2023-08-17T10:43:01;6.03;;;5.43;;
4226;SDS011;2127;51.046;7.080;2023-08-17T10:45:28;4.83;;;4.50;;
4226;SDS011;2127;51.046;7.080;2023-08-17T10:50:44;9.70;;;4.30;;
4226;SDS011;2127;51.046;7.080;2023-08-17T10:53:24;6.30;;;4.90;;
4226;SDS011;2127;51.046;7.080;2023-08-17T10:55:50;4.33;;;3.93;;
4226;SDS011;2127;51.046;7.080;2023-08-17T10:58:23;7.27;;;5.10;;
4226;SDS011;2127;51.046;7.080;2023-08-17T11:00:54;5.93;;;3.83;;
4226;SDS011;2127;51.046;7.080;2023-08-17T11:03:20;4.50;;;4.13;;
4226;SDS011;2127;51.046;7.080;2023-08-17T11:05:49;8.83;;;4.10;;
4226;SDS011;2127;51.046;7.080;2023-08-17T11:08:22;3.97;;;3.27;;
4226;SDS011;2127;51.046;7.080;2023-08-17T11:10:48;3.53;;;3.23;;
4226;SDS011;2127;51.046;7.080;2023-08-17T11:13:22;4.70;;;4.23;;
4226;SDS011;2127;51.046;7.080;2023-08-17T11:15:49;7.10;;;3.77;;
4226;SDS011;2127;51.046;7.080;2023-08-17T11:18:15;3.70;;;2.97;;
4226;SDS011;2127;51.046;7.080;2023-08-17T11:20:42;3.10;;;2.90;;
4226;SDS011;2127;51.046;7.080;2023-08-17T11:23:09;13.93;;;3.77;;
4226;SDS011;2127;51.046;7.080;2023-08-17T11:25:36;4.30;;;4.03;;
4226;SDS011;2127;51.046;7.080;2023-08-17T11:28:04;3.73;;;3.43;;
4226;SDS011;2127;51.046;7.080;2023-08-17T11:30:32;4.27;;;3.97;;
4226;SDS011;2127;51.046;7.080;2023-08-17T11:32:59;5.30;;;3.53;;
4226;SDS011;2127;51.046;7.080;2023-08-17T11:35:26;2.93;;;2.73;;
4226;SDS011;2127;51.046;7.080;2023-08-17T11:37:52;2.80;;;2.60;;
4226;SDS011;2127;51.046;7.080;2023-08-17T11:40:20;4.00;;;3.20;;
4226;SDS011;2127;51.046;7.080;2023-08-17T11:42:46;3.27;;;3.07;;
4226;SDS011;2127;51.046;7.080;2023-08-17T11:45:13;3.27;;;3.07;;
4226;SDS011;2127;51.046;7.080;2023-08-17T11:47:39;3.00;;;2.80;;
4226;SDS011;2127;51.046;7.080;2023-08-17T11:50:06;7.97;;;3.20;;
4226;SDS011;2127;51.046;7.080;2023-08-17T11:52:32;11.93;;;2.47;;
4226;SDS011;2127;51.046;7.080;2023-08-17T11:54:59;3.83;;;2.93;;
4226;SDS011;2127;51.046;7.080;2023-08-17T11:57:26;2.17;;;2.07;;
4226;SDS011;2127;51.046;7.080;2023-08-17T11:59:53;2.67;;;2.57;;
4226;SDS011;2127;51.046;7.080;2023-08-17T12:02:20;2.43;;;2.33;;
4226;SDS011;2127;51.046;7.080;2023-08-17T12:04:47;2.93;;;2.70;;
4226;SDS011;2127;51.046;7.080;2023-08-17T12:07:13;2.60;;;2.40;;
4226;SDS011;2127;51.046;7.080;2023-08-17T12:09:41;2.93;;;2.50;;
4226;SDS011;2127;51.046;7.080;2023-08-17T12:12:08;2.63;;;2.43;;
4226;SDS011;2127;51.046;7.080;2023-08-17T12:14:36;2.10;;;2.00;;
4226;SDS011;2127;51.046;7.080;2023-08-17T12:17:03;2.60;;;2.40;;
4226;SDS011;2127;51.046;7.080;2023-08-17T12:19:29;2.73;;;2.53;;
4226;SDS011;2127;51.046;7.080;2023-08-17T12:21:55;2.07;;;1.97;;
4226;SDS011;2127;51.046;7.080;2023-08-17T12:24:23;2.07;;;1.97;;
4226;SDS011;2127;51.046;7.080;2023-08-17T12:26:49;2.67;;;2.57;;
4226;SDS011;2127;51.046;7.080;2023-08-17T12:29:15;2.43;;;2.10;;
4226;SDS011;2127;51.046;7.080;2023-08-17T12:31:43;2.50;;;2.30;;
4226;SDS011;2127;51.046;7.080;2023-08-17T12:34:10;1.93;;;1.83;;
4226;SDS011;2127;51.046;7.080;2023-08-17T12:36:36;1.40;;;1.40;;
4226;SDS011;2127;51.046;7.080;2023-08-17T12:39:03;2.33;;;2.23;;
4226;SDS011;2127;51.046;7.080;2023-08-17T12:41:29;1.97;;;1.87;;
4226;SDS011;2127;51.046;7.080;2023-08-17T12:43:56;2.20;;;2.10;;
4226;SDS011;2127;51.046;7.080;2023-08-17T12:46:24;1.93;;;1.83;;
4226;SDS011;2127;51.046;7.080;2023-08-17T12:48:51;2.23;;;2.13;;
4226;SDS011;2127;51.046;7.080;2023-08-17T12:51:18;2.10;;;2.00;;
4226;SDS011;2127;51.046;7.080;2023-08-17T12:53:44;2.93;;;2.37;;
4226;SDS011;2127;51.046;7.080;2023-08-17T12:56:10;2.73;;;2.63;;
4226;SDS011;2127;51.046;7.080;2023-08-17T12:58:36;4.17;;;3.27;;
4226;SDS011;2127;51.046;7.080;2023-08-17T13:01:03;2.70;;;2.50;;
4226;SDS011;2127;51.046;7.080;2023-08-17T13:03:29;2.80;;;2.70;;
4226;SDS011;2127;51.046;7.080;2023-08-17T13:05:57;2.00;;;1.90;;
4226;SDS011;2127;51.046;7.080;2023-08-17T13:08:23;2.90;;;2.73;;
4226;SDS011;2127;51.046;7.080;2023-08-17T13:10:49;2.33;;;2.13;;
4226;SDS011;2127;51.046;7.080;2023-08-17T13:13:16;2.80;;;2.47;;
4226;SDS011;2127;51.046;7.080;2023-08-17T13:15:42;2.40;;;2.20;;
4226;SDS011;2127;51.046;7.080;2023-08-17T13:18:08;2.53;;;2.43;;
4226;SDS011;2127;51.046;7.080;2023-08-17T13:20:35;3.23;;;3.03;;
4226;SDS011;2127;51.046;7.080;2023-08-17T13:23:03;2.90;;;2.80;;
4226;SDS011;2127;51.046;7.080;2023-08-17T13:25:30;2.37;;;2.27;;
4226;SDS011;2127;51.046;7.080;2023-08-17T13:27:56;2.80;;;2.60;;
4226;SDS011;2127;51.046;7.080;2023-08-17T13:30:22;2.20;;;2.10;;
4226;SDS011;2127;51.046;7.080;2023-08-17T13:32:49;3.20;;;3.03;;
4226;SDS011;2127;51.046;7.080;2023-08-17T13:35:15;4.07;;;3.43;;
4226;SDS011;2127;51.046;7.080;2023-08-17T13:37:41;2.93;;;2.83;;
4226;SDS011;2127;51.046;7.080;2023-08-17T13:40:10;2.80;;;2.60;;
4226;SDS011;2127;51.046;7.080;2023-08-17T13:42:36;22.50;;;3.30;;
4226;SDS011;2127;51.046;7.080;2023-08-17T13:45:02;2.90;;;2.57;;
4226;SDS011;2127;51.046;7.080;2023-08-17T13:47:29;3.00;;;2.80;;
4226;SDS011;2127;51.046;7.080;2023-08-17T13:49:55;2.53;;;2.43;;
4226;SDS011;2127;51.046;7.080;2023-08-17T13:52:22;2.87;;;2.63;;
4226;SDS011;2127;51.046;7.080;2023-08-17T13:54:48;3.83;;;3.00;;
4226;SDS011;2127;51.046;7.080;2023-08-17T13:57:17;2.13;;;2.03;;
4226;SDS011;2127;51.046;7.080;2023-08-17T13:59:43;2.90;;;2.43;;
4226;SDS011;2127;51.046;7.080;2023-08-17T14:02:09;2.97;;;2.20;;
4226;SDS011;2127;51.046;7.080;2023-08-17T14:04:35;2.20;;;2.10;;
4226;SDS011;2127;51.046;7.080;2023-08-17T14:07:02;2.77;;;2.67;;
4226;SDS011;2127;51.046;7.080;2023-08-17T14:09:29;2.80;;;2.60;;
4226;SDS011;2127;51.046;7.080;2023-08-17T14:11:55;3.73;;;3.17;;
4226;SDS011;2127;51.046;7.080;2023-08-17T14:14:23;3.50;;;3.30;;
4226;SDS011;2127;51.046;7.080;2023-08-17T14:16:49;3.00;;;2.90;;
4226;SDS011;2127;51.046;7.080;2023-08-17T14:19:15;2.90;;;2.70;;
4226;SDS011;2127;51.046;7.080;2023-08-17T14:21:42;3.43;;;3.27;;
4226;SDS011;2127;51.046;7.080;2023-08-17T14:24:08;3.50;;;3.30;;
4226;SDS011;2127;51.046;7.080;2023-08-17T14:26:34;3.73;;;3.30;;
4226;SDS011;2127;51.046;7.080;2023-08-17T14:29:01;2.40;;;2.30;;
4226;SDS011;2127;51.046;7.080;2023-08-17T14:31:29;2.53;;;2.33;;
4226;SDS011;2127;51.046;7.080;2023-08-17T14:33:55;2.70;;;2.50;;
4226;SDS011;2127;51.046;7.080;2023-08-17T14:36:21;2.83;;;2.63;;
4226;SDS011;2127;51.046;7.080;2023-08-17T14:38:48;2.40;;;2.20;;
4226;SDS011;2127;51.046;7.080;2023-08-17T14:41:14;3.73;;;3.53;;
4226;SDS011;2127;51.046;7.080;2023-08-17T14:43:40;3.03;;;2.83;;
4226;SDS011;2127;51.046;7.080;2023-08-17T14:46:07;2.37;;;2.27;;
4226;SDS011;2127;51.046;7.080;2023-08-17T14:48:34;6.80;;;2.63;;
4226;SDS011;2127;51.046;7.080;2023-08-17T14:51:00;5.93;;;2.43;;
4226;SDS011;2127;51.046;7.080;2023-08-17T14:53:28;2.40;;;2.30;;
4226;SDS011;2127;51.046;7.080;2023-08-17T14:55:54;4.83;;;4.30;;
4226;SDS011;2127;51.046;7.080;2023-08-17T14:58:20;3.70;;;3.50;;
4226;SDS011;2127;51.046;7.080;2023-08-17T15:00:47;3.27;;;3.03;;
4226;SDS011;2127;51.046;7.080;2023-08-17T15:03:13;2.67;;;2.53;;
4226;SDS011;2127;51.046;7.080;2023-08-17T15:05:40;2.20;;;2.10;;
4226;SDS011;2127;51.046;7.080;2023-08-17T15:08:07;3.10;;;3.00;;
4226;SDS011;2127;51.046;7.080;2023-08-17T15:10:33;2.50;;;2.40;;
4226;SDS011;2127;51.046;7.080;2023-08-17T15:12:59;3.37;;;3.07;;
4226;SDS011;2127;51.046;7.080;2023-08-17T15:15:26;2.30;;;2.20;;